createdAt,value
2022-12-14T00:01:49.168Z,17.63
2022-12-14T00:04:17.419Z,19.00
2022-12-14T00:06:44.922Z,17.30
2022-12-14T00:09:12.641Z,18.50
2022-12-14T00:11:40.256Z,17.07
2022-12-14T00:14:07.778Z,18.47
2022-12-14T00:16:35.766Z,18.57
2022-12-14T00:19:05.464Z,15.87
2022-12-14T00:21:33.814Z,18.10
2022-12-14T00:24:01.294Z,15.50
2022-12-14T00:26:31.375Z,16.87
2022-12-14T00:28:59.720Z,17.30
2022-12-14T00:31:27.320Z,19.17
2022-12-14T00:33:55.630Z,16.83
2022-12-14T00:36:23.157Z,17.13
2022-12-14T00:38:50.713Z,15.20
2022-12-14T00:41:18.158Z,15.87
2022-12-14T00:43:45.654Z,16.53
2022-12-14T00:46:17.390Z,16.77
2022-12-14T00:48:45.087Z,16.83
2022-12-14T00:51:14.986Z,14.33
2022-12-14T00:53:42.879Z,16.53
2022-12-14T00:56:10.411Z,16.83
2022-12-14T00:58:37.874Z,15.63
2022-12-14T01:01:07.032Z,15.43
2022-12-14T01:03:35.047Z,15.17
2022-12-14T01:06:02.954Z,15.43
2022-12-14T01:08:35.990Z,16.20
2022-12-14T01:11:05.453Z,16.47
2022-12-14T01:13:33.188Z,16.47
2022-12-14T01:16:09.640Z,15.40
2022-12-14T01:18:37.799Z,14.63
2022-12-14T01:21:24.252Z,17.30
2022-12-14T01:23:58.595Z,14.03
2022-12-14T01:26:27.226Z,16.43
2022-12-14T01:28:58.715Z,15.97
2022-12-14T01:31:28.013Z,16.33
2022-12-14T01:33:55.642Z,15.47
2022-12-14T01:36:24.793Z,16.03
2022-12-14T01:38:56.737Z,17.13
2022-12-14T01:41:31.525Z,16.77
2022-12-14T01:44:03.061Z,18.47
2022-12-14T01:46:30.610Z,16.37
2022-12-14T01:49:03.888Z,15.97
2022-12-14T01:51:32.860Z,16.30
2022-12-14T01:54:01.175Z,15.63
2022-12-14T01:56:29.909Z,17.83
2022-12-14T01:58:59.527Z,17.40
2022-12-14T02:01:27.063Z,16.17
2022-12-14T02:03:55.141Z,18.93
2022-12-14T02:06:25.315Z,15.23
2022-12-14T02:08:54.425Z,16.10
2022-12-14T02:11:27.404Z,15.93
2022-12-14T02:13:54.895Z,18.10
2022-12-14T02:16:22.405Z,15.97
2022-12-14T02:18:49.928Z,15.37
2022-12-14T02:21:17.590Z,16.43
2022-12-14T02:24:06.817Z,16.23
2022-12-14T02:26:52.760Z,15.27
2022-12-14T02:29:38.769Z,18.97
2022-12-14T02:32:21.141Z,18.20
2022-12-14T02:34:54.702Z,14.90
2022-12-14T02:37:26.186Z,16.43
2022-12-14T02:39:53.633Z,15.80
2022-12-14T02:42:25.063Z,16.90
2022-12-14T02:45:04.432Z,16.03
2022-12-14T02:47:39.239Z,17.83
2022-12-14T02:50:12.945Z,16.53
2022-12-14T02:52:43.421Z,16.83
2022-12-14T02:55:19.803Z,16.50
2022-12-14T02:57:57.743Z,17.93
2022-12-14T03:00:25.521Z,16.77
2022-12-14T03:02:53.838Z,18.23
2022-12-14T03:05:21.558Z,15.53
2022-12-14T03:07:52.025Z,17.57
2022-12-14T03:10:22.613Z,21.83
2022-12-14T03:12:55.222Z,18.23
2022-12-14T03:15:24.331Z,17.40
2022-12-14T03:17:53.879Z,18.93
2022-12-14T03:20:23.441Z,19.00
2022-12-14T03:23:03.265Z,15.27
2022-12-14T03:25:34.093Z,18.17
2022-12-14T03:28:10.009Z,17.27
2022-12-14T03:30:59.437Z,18.47
2022-12-14T03:33:28.287Z,15.57
2022-12-14T03:36:05.843Z,15.20
2022-12-14T03:38:43.631Z,16.70
2022-12-14T03:41:32.226Z,16.57
2022-12-14T03:44:05.935Z,17.50
2022-12-14T03:46:45.777Z,15.87
2022-12-14T03:49:19.456Z,17.80
2022-12-14T03:51:46.918Z,17.17
2022-12-14T03:54:21.284Z,19.57
2022-12-14T03:56:53.507Z,17.43
2022-12-14T03:59:27.653Z,16.23
2022-12-14T04:02:04.311Z,17.23
2022-12-14T04:04:35.536Z,14.17
2022-12-14T04:07:05.762Z,19.23
2022-12-14T04:09:36.614Z,18.37
2022-12-14T04:12:42.589Z,16.83
2022-12-14T04:15:33.207Z,15.50
2022-12-14T04:29:13.004Z,16.93
2022-12-14T04:31:43.125Z,17.20
2022-12-14T04:34:12.619Z,19.57
2022-12-14T04:36:43.104Z,19.50
2022-12-14T04:39:14.349Z,16.67
2022-12-14T04:41:43.275Z,18.90
2022-12-14T04:44:15.244Z,18.57
2022-12-14T04:46:46.657Z,18.23
2022-12-14T04:49:22.737Z,17.43
2022-12-14T04:52:04.800Z,16.73
2022-12-14T04:54:39.176Z,17.90
2022-12-14T04:57:18.831Z,18.90
2022-12-14T04:59:46.865Z,18.53
2022-12-14T05:02:23.543Z,19.53
2022-12-14T05:04:56.798Z,17.73
2022-12-14T05:07:36.253Z,18.30
2022-12-14T05:10:22.371Z,17.03
2022-12-14T05:12:57.553Z,17.10
2022-12-14T05:15:27.796Z,20.67
2022-12-14T05:17:55.417Z,16.33
2022-12-14T05:20:24.683Z,18.23
2022-12-14T05:22:52.086Z,19.30
2022-12-14T05:25:19.456Z,17.63
2022-12-14T05:27:46.868Z,18.00
2022-12-14T05:30:14.353Z,17.00
2022-12-14T05:32:41.814Z,17.13
2022-12-14T05:35:10.676Z,17.80
2022-12-14T05:37:38.289Z,18.50
2022-12-14T05:40:06.277Z,19.43
2022-12-14T05:42:33.660Z,18.33
2022-12-14T05:45:01.083Z,18.27
2022-12-14T05:47:28.826Z,17.33
2022-12-14T05:49:56.163Z,18.30
2022-12-14T05:52:26.076Z,18.63
2022-12-14T05:54:55.544Z,18.77
2022-12-14T05:57:24.654Z,21.80
2022-12-14T05:59:52.067Z,19.87
2022-12-14T06:02:19.577Z,20.40
2022-12-14T06:04:47.151Z,22.27
2022-12-14T06:07:14.535Z,19.73
2022-12-14T06:09:42.195Z,22.30
2022-12-14T06:12:09.605Z,20.37
2022-12-14T06:14:37.045Z,20.47
2022-12-14T06:17:04.513Z,18.90
2022-12-14T06:19:31.958Z,19.97
2022-12-14T06:21:59.409Z,19.07
2022-12-14T06:24:26.780Z,20.07
2022-12-14T06:26:54.210Z,21.80
2022-12-14T06:29:21.659Z,19.97
2022-12-14T06:31:49.789Z,21.27
2022-12-14T06:34:17.816Z,26.17
2022-12-14T06:36:46.867Z,23.40
2022-12-14T06:39:15.129Z,24.80
2022-12-14T06:41:42.700Z,19.37
2022-12-14T06:44:14.756Z,20.30
2022-12-14T06:46:42.592Z,19.67
2022-12-14T06:49:13.510Z,20.13
2022-12-14T06:51:41.022Z,21.77
2022-12-14T06:54:08.704Z,21.97
2022-12-14T06:56:36.075Z,21.57
2022-12-14T06:59:03.467Z,22.13
2022-12-14T07:01:31.003Z,23.53
2022-12-14T07:03:59.674Z,22.60
2022-12-14T07:06:29.008Z,22.30
2022-12-14T07:08:57.582Z,22.97
2022-12-14T07:11:25.831Z,22.03
2022-12-14T07:13:53.764Z,21.07
2022-12-14T07:16:22.149Z,22.07
2022-12-14T07:18:50.137Z,23.40
2022-12-14T07:21:18.489Z,26.30
2022-12-14T07:23:46.496Z,21.80
2022-12-14T07:26:17.754Z,23.37
2022-12-14T07:28:45.625Z,24.03
2022-12-14T07:31:17.214Z,24.30
2022-12-14T07:33:44.619Z,22.83
2022-12-14T07:36:13.655Z,22.90
2022-12-14T07:38:41.641Z,23.63
2022-12-14T07:41:10.739Z,19.57
2022-12-14T07:43:38.548Z,20.03
2022-12-14T07:46:07.831Z,25.17
2022-12-14T07:48:35.529Z,18.97
2022-12-14T07:51:04.041Z,22.53
2022-12-14T07:53:31.869Z,20.70
2022-12-14T07:56:03.615Z,22.73
2022-12-14T07:58:31.359Z,20.70
2022-12-14T08:01:08.320Z,18.53
2022-12-14T08:03:35.795Z,21.80
2022-12-14T08:06:07.205Z,22.10
2022-12-14T08:08:34.990Z,20.63
2022-12-14T08:11:02.713Z,21.97
2022-12-14T08:13:30.680Z,21.50
2022-12-14T08:16:03.068Z,20.10
2022-12-14T08:18:30.523Z,23.40
2022-12-14T08:20:57.932Z,24.17
2022-12-14T08:23:28.565Z,22.53
2022-12-14T08:25:57.038Z,21.53
2022-12-14T08:28:25.082Z,22.97
2022-12-14T08:30:53.036Z,31.67
2022-12-14T08:33:21.233Z,28.13
2022-12-14T08:35:49.024Z,24.07
2022-12-14T08:38:16.632Z,23.60
2022-12-14T08:40:44.080Z,23.37
2022-12-14T08:43:11.562Z,25.53
2022-12-14T08:45:39.170Z,25.93
2022-12-14T08:48:06.727Z,25.30
2022-12-14T08:50:34.222Z,23.27
2022-12-14T08:53:01.636Z,24.60
2022-12-14T08:55:32.544Z,24.70
2022-12-14T08:58:02.728Z,22.67
2022-12-14T09:00:30.237Z,25.40
2022-12-14T09:02:57.732Z,31.43
2022-12-14T09:05:25.383Z,22.77
2022-12-14T09:07:52.684Z,25.27
2022-12-14T09:10:20.166Z,23.87
2022-12-14T09:12:47.573Z,26.40
2022-12-14T09:15:15.053Z,23.30
2022-12-14T09:17:42.487Z,23.80
2022-12-14T09:20:10.669Z,24.03
2022-12-14T09:22:37.992Z,27.27
2022-12-14T09:25:05.450Z,25.53
2022-12-14T09:27:33.647Z,27.70
2022-12-14T09:30:01.042Z,24.30
2022-12-14T09:32:31.722Z,27.03
2022-12-14T09:34:59.637Z,22.33
2022-12-14T09:37:27.060Z,23.87
2022-12-14T09:39:54.466Z,22.43
2022-12-14T09:42:24.987Z,24.10
2022-12-14T09:45:05.216Z,24.40
2022-12-14T09:47:36.378Z,24.70
2022-12-14T09:50:03.733Z,27.60
2022-12-14T09:52:54.513Z,25.80
2022-12-14T09:55:26.310Z,44.47
2022-12-14T09:58:01.282Z,32.10
2022-12-14T10:00:33.205Z,27.50
2022-12-14T10:03:14.616Z,33.70
2022-12-14T10:06:01.635Z,27.03
2022-12-14T10:08:32.816Z,26.23
2022-12-14T10:11:03.429Z,26.43
2022-12-14T10:13:31.407Z,24.63
2022-12-14T10:16:19.495Z,27.00
2022-12-14T10:19:00.885Z,23.53
2022-12-14T10:21:37.836Z,21.47
2022-12-14T10:24:06.753Z,24.30
2022-12-14T10:26:46.457Z,24.00
2022-12-14T10:29:36.024Z,26.30
2022-12-14T10:32:22.413Z,25.33
2022-12-14T10:34:49.930Z,25.00
2022-12-14T10:37:25.742Z,24.20
2022-12-14T10:40:19.688Z,23.40
2022-12-14T10:43:03.288Z,25.50
2022-12-14T10:45:40.232Z,24.57
2022-12-14T10:48:24.801Z,24.13
2022-12-14T10:51:01.424Z,22.60
2022-12-14T10:53:35.824Z,24.80
2022-12-14T10:56:12.134Z,23.83
2022-12-14T10:58:39.527Z,23.03
2022-12-14T11:01:10.525Z,27.73
2022-12-14T11:03:38.341Z,23.50
2022-12-14T11:06:15.211Z,26.17
2022-12-14T11:08:48.311Z,24.90
2022-12-14T11:11:23.827Z,24.10
2022-12-14T11:13:52.789Z,26.23
2022-12-14T11:16:28.958Z,23.70
2022-12-14T11:19:01.754Z,24.63
2022-12-14T11:21:30.717Z,29.27
2022-12-14T11:23:58.208Z,25.87
2022-12-14T11:26:37.404Z,28.90
2022-12-14T11:29:06.896Z,26.30
2022-12-14T11:31:37.412Z,27.37
2022-12-14T11:34:06.205Z,28.33
2022-12-14T11:36:37.439Z,25.67
2022-12-14T11:39:04.868Z,25.70
2022-12-14T11:41:40.073Z,27.47
2022-12-14T11:44:23.263Z,23.63
2022-12-14T11:47:00.301Z,26.67
2022-12-14T11:49:43.729Z,29.40
2022-12-14T11:52:12.880Z,26.80
2022-12-14T11:54:42.060Z,31.97
2022-12-14T11:57:10.267Z,28.27
2022-12-14T11:59:43.164Z,27.67
2022-12-14T12:02:22.986Z,28.77
2022-12-14T12:04:53.398Z,29.57
2022-12-14T12:07:32.263Z,25.13
2022-12-14T12:10:05.934Z,28.60
2022-12-14T12:12:33.671Z,24.40
2022-12-14T12:15:01.358Z,28.07
2022-12-14T12:17:43.635Z,23.40
2022-12-14T12:20:31.687Z,29.33
2022-12-14T12:23:00.990Z,29.40
2022-12-14T12:25:36.986Z,29.17
2022-12-14T12:28:34.334Z,23.77
2022-12-14T12:31:09.069Z,22.87
2022-12-14T12:33:43.757Z,24.33
2022-12-14T12:36:11.386Z,28.70
2022-12-14T12:38:42.112Z,27.40
2022-12-14T12:41:26.292Z,24.53
2022-12-14T12:44:17.008Z,28.40
2022-12-14T12:47:24.031Z,27.30
2022-12-14T12:49:47.023Z,27.07
2022-12-14T12:52:29.854Z,29.07
2022-12-14T12:54:59.137Z,27.00
2022-12-14T12:57:33.465Z,25.17
2022-12-14T13:00:01.018Z,25.83
2022-12-14T13:02:34.031Z,28.77
2022-12-14T13:05:45.678Z,28.03
2022-12-14T13:08:08.290Z,31.77
2022-12-14T13:10:41.992Z,29.77
2022-12-14T13:13:26.965Z,31.17
2022-12-14T13:15:56.249Z,27.17
2022-12-14T13:18:57.930Z,29.67
2022-12-14T13:21:44.037Z,30.53
2022-12-14T13:24:18.313Z,26.17
2022-12-14T13:26:58.955Z,31.43
2022-12-14T13:29:35.980Z,29.67
2022-12-14T13:32:29.879Z,33.07
2022-12-14T13:35:07.354Z,26.33
2022-12-14T13:37:57.491Z,28.80
2022-12-14T13:40:24.972Z,27.93
2022-12-14T13:42:52.464Z,28.03
2022-12-14T13:45:23.572Z,32.23
2022-12-14T13:47:54.622Z,28.57
2022-12-14T13:50:36.200Z,28.23
2022-12-14T13:53:19.516Z,29.47
2022-12-14T13:55:52.254Z,30.03
2022-12-14T13:58:32.024Z,28.87
2022-12-14T14:01:01.445Z,32.20
2022-12-14T14:03:35.211Z,30.20
2022-12-14T14:06:09.000Z,29.50
2022-12-14T14:08:41.809Z,30.50
2022-12-14T14:14:19.435Z,29.27
2022-12-14T14:16:50.029Z,28.83
2022-12-14T14:19:24.817Z,26.20
2022-12-14T14:22:21.736Z,29.67
2022-12-14T14:25:09.294Z,33.63
2022-12-14T14:27:38.734Z,32.83
2022-12-14T14:30:24.483Z,30.93
2022-12-14T14:32:54.218Z,30.10
2022-12-14T14:35:27.670Z,30.03
2022-12-14T14:37:59.736Z,28.93
2022-12-14T14:40:51.479Z,28.83
2022-12-14T14:43:39.455Z,31.07
2022-12-14T14:46:08.902Z,28.57
2022-12-14T14:48:43.875Z,33.50
2022-12-14T14:51:17.164Z,33.23
2022-12-14T14:53:45.047Z,35.07
2022-12-14T14:56:32.877Z,31.67
2022-12-14T14:59:30.014Z,30.67
2022-12-14T15:02:00.618Z,29.70
2022-12-14T15:04:46.912Z,31.47
2022-12-14T15:07:23.007Z,28.90
2022-12-14T15:09:59.639Z,30.87
2022-12-14T15:12:33.258Z,30.67
2022-12-14T15:15:27.251Z,33.10
2022-12-14T15:17:54.877Z,31.80
2022-12-14T15:20:27.771Z,29.33
2022-12-14T15:22:56.415Z,30.87
2022-12-14T15:25:26.036Z,34.10
2022-12-14T15:27:54.287Z,34.70
2022-12-14T15:30:25.533Z,30.93
2022-12-14T15:33:03.645Z,31.73
2022-12-14T15:35:32.928Z,31.73
2022-12-14T15:38:06.227Z,32.00
2022-12-14T15:40:34.719Z,31.40
2022-12-14T15:43:17.016Z,32.03
2022-12-14T15:45:45.329Z,32.33
2022-12-14T15:48:25.869Z,31.63
2022-12-14T15:50:55.431Z,27.83
2022-12-14T15:53:38.593Z,29.47
2022-12-14T15:56:15.352Z,30.97
2022-12-14T15:58:45.096Z,32.90
2022-12-14T16:01:18.438Z,30.87
2022-12-14T16:03:48.234Z,31.97
2022-12-14T16:06:18.382Z,32.83
2022-12-14T16:08:55.143Z,32.63
2022-12-14T16:11:43.601Z,34.10
2022-12-14T16:14:25.078Z,30.13
2022-12-14T16:16:52.815Z,32.67
2022-12-14T16:19:27.640Z,34.13
2022-12-14T16:22:15.201Z,34.43
2022-12-14T16:24:54.300Z,33.63
2022-12-14T16:27:21.867Z,30.60
2022-12-14T16:30:05.095Z,32.63
2022-12-14T16:32:33.678Z,32.93
2022-12-14T16:35:01.502Z,30.67
2022-12-14T16:37:33.437Z,34.10
2022-12-14T16:40:01.627Z,30.00
2022-12-14T16:42:32.442Z,30.23
2022-12-14T16:45:01.129Z,34.60
2022-12-14T16:47:35.636Z,33.07
2022-12-14T16:50:40.043Z,30.23
2022-12-14T16:53:14.722Z,31.63
2022-12-14T16:56:02.476Z,32.70
2022-12-14T16:58:30.424Z,30.00
2022-12-14T17:01:02.085Z,31.73
2022-12-14T17:03:30.962Z,33.77
2022-12-14T17:06:00.984Z,32.40
2022-12-14T17:08:28.657Z,33.50
2022-12-14T17:10:56.376Z,34.53
2022-12-14T17:13:24.011Z,32.57
2022-12-14T17:16:06.085Z,31.53
2022-12-14T17:18:39.255Z,36.30
2022-12-14T17:21:07.137Z,33.00
2022-12-14T17:23:44.092Z,33.07
2022-12-14T17:26:25.478Z,41.80
2022-12-14T17:28:52.960Z,38.80
2022-12-14T17:31:22.697Z,35.17
2022-12-14T17:33:50.946Z,36.60
2022-12-14T17:36:18.446Z,37.90
2022-12-14T17:38:45.972Z,37.73
2022-12-14T17:41:23.693Z,38.23
2022-12-14T17:43:56.635Z,37.57
2022-12-14T17:46:25.253Z,39.17
2022-12-14T17:48:53.471Z,36.37
2022-12-14T17:51:25.663Z,38.27
2022-12-14T17:53:53.917Z,38.70
2022-12-14T17:56:21.806Z,40.10
2022-12-14T17:58:50.181Z,37.67
2022-12-14T18:01:23.058Z,36.80
2022-12-14T18:03:50.939Z,40.57
2022-12-14T18:06:19.082Z,38.93
2022-12-14T18:08:47.042Z,38.30
2022-12-14T18:11:16.346Z,41.00
2022-12-14T18:13:44.148Z,37.80
2022-12-14T18:16:16.418Z,37.43
2022-12-14T18:18:46.001Z,39.93
2022-12-14T18:21:24.325Z,41.43
2022-12-14T18:23:52.431Z,37.10
2022-12-14T18:26:21.042Z,39.97
2022-12-14T18:28:49.408Z,39.47
2022-12-14T18:31:22.659Z,38.87
2022-12-14T18:33:50.746Z,38.87
2022-12-14T18:36:20.148Z,37.03
2022-12-14T18:38:49.511Z,39.07
2022-12-14T18:41:18.888Z,40.53
2022-12-14T18:43:46.631Z,35.67
2022-12-14T18:46:14.129Z,38.03
2022-12-14T18:48:42.361Z,36.47
2022-12-14T18:51:23.160Z,38.77
2022-12-14T18:53:51.105Z,35.97
2022-12-14T18:56:19.062Z,34.47
2022-12-14T18:58:47.685Z,38.73
2022-12-14T19:01:16.296Z,37.53
2022-12-14T19:03:44.773Z,36.87
2022-12-14T19:09:04.732Z,32.80
2022-12-14T19:11:33.786Z,33.97
2022-12-14T19:14:01.794Z,31.90
2022-12-14T19:16:29.558Z,37.57
2022-12-14T19:18:57.075Z,34.90
2022-12-14T19:21:26.422Z,32.50
2022-12-14T19:23:53.835Z,35.60
2022-12-14T19:26:21.450Z,39.27
2022-12-14T19:28:49.067Z,33.20
2022-12-14T19:31:16.584Z,36.27
2022-12-14T19:33:44.038Z,37.47
2022-12-14T19:36:11.552Z,34.37
2022-12-14T19:38:39.317Z,36.87
2022-12-14T19:41:12.024Z,37.37
2022-12-14T19:43:39.616Z,34.60
2022-12-14T19:46:11.334Z,37.17
2022-12-14T19:48:38.834Z,33.63
2022-12-14T19:51:07.159Z,38.33
2022-12-14T19:53:35.334Z,33.73
2022-12-14T19:56:03.182Z,34.37
2022-12-14T19:58:30.775Z,34.07
2022-12-14T20:00:58.422Z,36.23
2022-12-14T20:03:25.931Z,35.97
2022-12-14T20:06:00.245Z,34.67
2022-12-14T20:08:28.875Z,35.90
2022-12-14T20:10:56.703Z,36.93
2022-12-14T20:13:25.135Z,37.03
2022-12-14T20:16:00.521Z,31.37
2022-12-14T20:18:28.627Z,33.47
2022-12-14T20:21:07.015Z,32.73
2022-12-14T20:23:37.989Z,37.73
2022-12-14T20:26:06.551Z,34.43
2022-12-14T20:28:34.254Z,36.07
2022-12-14T20:31:01.956Z,37.60
2022-12-14T20:33:30.731Z,35.50
2022-12-14T20:35:58.468Z,35.47
2022-12-14T20:38:26.056Z,35.23
2022-12-14T20:40:53.776Z,37.37
2022-12-14T20:43:21.294Z,35.73
2022-12-14T20:45:48.761Z,36.23
2022-12-14T20:48:16.207Z,35.83
2022-12-14T20:50:44.307Z,38.60
2022-12-14T20:53:18.692Z,37.33
2022-12-14T20:55:46.075Z,34.83
2022-12-14T20:58:13.481Z,39.70
2022-12-14T21:00:40.953Z,34.40
2022-12-14T21:03:08.607Z,36.23
2022-12-14T21:05:40.811Z,35.77
2022-12-14T21:08:08.302Z,38.30
2022-12-14T21:10:35.838Z,33.33
2022-12-14T21:13:07.656Z,35.80
2022-12-14T21:15:35.869Z,38.27
2022-12-14T21:18:03.645Z,32.57
2022-12-14T21:20:31.107Z,35.27
2022-12-14T21:22:58.622Z,38.60
2022-12-14T21:25:26.058Z,38.17
2022-12-14T21:27:53.443Z,34.43
2022-12-14T21:30:21.140Z,37.20
2022-12-14T21:32:48.578Z,38.30
2022-12-14T21:35:18.442Z,36.37
2022-12-14T21:37:45.923Z,37.80
2022-12-14T21:40:33.463Z,37.87
2022-12-14T21:43:00.891Z,36.37
2022-12-14T21:45:28.333Z,35.27
2022-12-14T21:47:55.991Z,40.93
2022-12-14T21:50:23.403Z,42.37
2022-12-14T21:52:50.789Z,38.30
2022-12-14T21:55:18.218Z,39.80
2022-12-14T21:58:04.194Z,36.33
2022-12-14T22:00:31.640Z,34.57
2022-12-14T22:02:59.082Z,36.77
2022-12-14T22:05:26.518Z,37.23
2022-12-14T22:07:53.983Z,34.43
2022-12-14T22:10:24.861Z,36.93
2022-12-14T22:12:52.569Z,36.50
2022-12-14T22:15:19.965Z,39.97
2022-12-14T22:17:47.399Z,38.50
2022-12-14T22:20:14.881Z,36.73
2022-12-14T22:22:42.338Z,38.47
2022-12-14T22:25:09.969Z,38.13
2022-12-14T22:27:37.317Z,37.03
2022-12-14T22:30:05.464Z,38.43
2022-12-14T22:32:32.990Z,36.27
2022-12-14T22:35:00.603Z,36.83
2022-12-14T22:37:28.017Z,35.50
2022-12-14T22:39:55.387Z,40.63
2022-12-14T22:42:22.763Z,37.77
2022-12-14T22:44:50.168Z,39.53
2022-12-14T22:47:17.801Z,36.03
2022-12-14T22:49:45.213Z,38.17
2022-12-14T22:52:13.051Z,37.83
2022-12-14T22:54:41.621Z,44.53
2022-12-14T22:57:12.207Z,51.33
2022-12-14T22:59:42.085Z,47.53
2022-12-14T23:02:09.823Z,39.73
2022-12-14T23:04:38.035Z,44.57
2022-12-14T23:07:05.626Z,40.30
2022-12-14T23:09:52.325Z,42.70
2022-12-14T23:12:39.546Z,40.50
2022-12-14T23:15:25.847Z,41.10
2022-12-14T23:18:15.168Z,34.77
2022-12-14T23:21:01.317Z,37.60
2022-12-14T23:23:47.372Z,37.93
2022-12-14T23:26:33.638Z,43.90
2022-12-14T23:29:20.036Z,39.13
2022-12-14T23:32:06.220Z,36.37
2022-12-14T23:34:52.512Z,35.00
2022-12-14T23:37:38.697Z,34.90
2022-12-14T23:40:25.316Z,35.60
2022-12-14T23:43:11.518Z,36.70
2022-12-14T23:45:57.557Z,32.27
2022-12-14T23:48:43.663Z,36.37
2022-12-14T23:51:29.988Z,35.50
2022-12-14T23:54:15.756Z,36.77
2022-12-14T23:57:01.726Z,34.93
2022-12-14T23:59:49.532Z,36.30
